Wallace, Louisiana
Current Conditions -  °F | °C
As of 5:35 PM on Friday 19 Dec 2014 (Local Time) from K1L0 Reporting Station
Light Rain Light Rain  
Wind Chill: 51°   Ceiling: 500
Heat Index: 51°   Visibility: 10mi
Dew Point: 48°   Wind: 10mph
Humidity: 90%   Direction: 30°NNE
Pressure: 30.06"   Gusts: 17mph
Location:  30.0045°N, 90.6027°W
Report Text: K1L0 192335Z AUTO 03009G15KT 10SM -RA OVC005 10/09 A3006 RMK AO2 P0001 T01030088
Loading
Personal Weather Stations






























Interactive Weather Map New forecast layout! Learn more

10-Day Weather Forecast

Advertisements
Track Severe Weather on mobile